Aérodrome :
LOGIN :

S'inscrire | Disclaimer

   EN    FR    IT 

 










Légende :    VFR   VFR Marginal   IFR   IFR Intensif   IFR Très Intensif
Visi : 
Plafond : 
>= 8 km
>= 3000ft
5 à 8 km
1000 à 3000 ft
1500m à 5 km
500 à 1000 ft
800 à 1500m
200 à 500 ft
< 800m
< 200 ft
Symboles :   Orages  Brouillard  Fortes neiges  Fortes précipitations  Vent > 20 kt
SIGMETs :   Divers  Orages  Givrage  Turbulence  Onde Orograph.  Cendres Volcan.






- Altitude de l'aérodrome : 935 ft


EBFS - Florennes

DERNIER METAR :
  • 301625Z AUTO 28004KT 9999 FEW025/// OVC060/// 12/11 Q1014 BLU

METARs EXPIRÉS :
  • 301555Z AUTO VRB02KT 9999 -RA FEW004/// BKN055/// 12/11 Q1014 BLU
  • 301545Z 29004KT 4000 -RA FEW003 SCT005 BKN045 11/11 Q1014 YLO FCST CANCEL
  • 301525Z 30006KT 4000 -RA FEW003 SCT005 BKN045 11/11 Q1014 YLO WHT TEMPO YLO
  • 301455Z 27012KT 3800 RA FEW003 SCT004 BKN006 11/11 Q1014 YLO WHT TEMPO YLO
  • 301425Z 28014KT 3000 RA FEW005 BKN020 12/12 Q1014 YLO WHT TEMPO YLO
  • 301417Z 29012KT 3500 RA FEW006 BKN020 12/11 Q1014 YLO WHT TEMPO YLO
  • 301405Z 26015KT 3700 RA FEW008 BKN020 12/11 Q1014 GRN WHT TEMPO YLO
  • 301355Z 28013KT 5000 -RA FEW009 BKN020 12/11 Q1015 WHT WHT TEMPO GRN

TAF TAF EBFS
Valide du 30 à 13h jusqu'au 30 à 22h UTC


301141Z 3013/3022 29008KT 9999 SCT015 BKN020
TEMPO 3013/3022 6000 -RA SCT008 BKN012
TEMPO 3013/3019 29010G20KT 3000 RA SCT006 BKN010



MET'MAP, la Météo Aéronautique d'un coup d'oeil ! - Copyright ORBIFLY Décembre 2007 - Disclaimer

ORBIFLY MET'MAP TEAM :

Programmation & Développement : Alexandra Zaïnal
Sur une idée originale de : Baudouin d'Aumeries
Soutien technique & logistique : Manuel Goepfert
Assistance : Marc-Olivier Méhu




SOURCES & CREDITS :

   NOAA